createdAt,value
2022-11-08T00:02:24.498Z,70.02
2022-11-08T00:04:51.745Z,69.86
2022-11-08T00:07:37.502Z,69.57
2022-11-08T00:10:23.217Z,69.99
2022-11-08T00:13:08.900Z,69.73
2022-11-08T00:15:39.016Z,69.49
2022-11-08T00:18:07.716Z,70.07
2022-11-08T00:20:35.192Z,69.86
2022-11-08T00:23:02.378Z,69.80
2022-11-08T00:25:29.389Z,69.66
2022-11-08T00:27:57.498Z,70.29
2022-11-08T00:30:24.540Z,69.94
2022-11-08T00:32:51.844Z,69.90
2022-11-08T00:35:18.860Z,69.91
2022-11-08T00:37:45.919Z,70.22
2022-11-08T00:40:13.152Z,70.63
2022-11-08T00:42:40.301Z,70.90
2022-11-08T00:45:07.749Z,70.76
2022-11-08T00:47:35.086Z,71.41
2022-11-08T00:50:02.189Z,71.21
2022-11-08T00:52:30.923Z,70.86
2022-11-08T00:54:58.280Z,71.18
2022-11-08T00:57:46.898Z,71.40
2022-11-08T01:00:13.164Z,71.01
2022-11-08T01:02:40.399Z,71.91
2022-11-08T01:05:07.853Z,71.36
2022-11-08T01:07:34.976Z,71.32
2022-11-08T01:10:02.240Z,70.94
2022-11-08T01:12:30.646Z,71.50
2022-11-08T01:14:57.905Z,71.41
2022-11-08T01:17:24.996Z,71.67
2022-11-08T01:19:52.054Z,71.60
2022-11-08T01:22:19.157Z,71.74
2022-11-08T01:24:46.187Z,71.45
2022-11-08T01:27:13.323Z,71.78
2022-11-08T01:29:40.315Z,71.77
2022-11-08T01:32:07.337Z,71.24
2022-11-08T01:34:34.570Z,71.75
2022-11-08T01:37:01.713Z,71.23
2022-11-08T01:39:33.072Z,71.44
2022-11-08T01:42:00.208Z,71.61
2022-11-08T01:44:27.382Z,71.09
2022-11-08T01:46:54.761Z,71.53
2022-11-08T01:49:37.529Z,71.42
2022-11-08T01:52:23.193Z,71.44
2022-11-08T01:55:23.363Z,71.67
2022-11-08T01:57:54.553Z,71.50
2022-11-08T02:00:22.329Z,71.51
2022-11-08T02:02:54.913Z,71.56
2022-11-08T02:05:26.353Z,72.13
2022-11-08T02:08:08.817Z,71.07
2022-11-08T02:10:42.116Z,71.45
2022-11-08T02:13:15.088Z,71.80
2022-11-08T02:15:43.638Z,71.48
2022-11-08T02:18:11.816Z,71.54
2022-11-08T02:20:44.260Z,71.57
2022-11-08T02:23:32.524Z,71.44
2022-11-08T02:25:59.527Z,72.14
2022-11-08T02:28:26.696Z,71.56
2022-11-08T02:30:54.774Z,71.92
2022-11-08T02:33:23.442Z,71.71
2022-11-08T02:35:55.078Z,71.82
2022-11-08T02:38:25.439Z,71.82
2022-11-08T02:40:54.696Z,71.95
2022-11-08T02:43:23.254Z,71.37
2022-11-08T02:45:51.725Z,71.62
2022-11-08T02:48:20.450Z,72.16
2022-11-08T02:50:47.919Z,71.72
2022-11-08T02:53:15.786Z,71.61
2022-11-08T02:55:42.986Z,71.51
2022-11-08T02:58:11.375Z,71.60
2022-11-08T03:00:39.041Z,71.76
2022-11-08T03:03:06.340Z,71.98
2022-11-08T03:05:33.805Z,72.11
2022-11-08T03:08:00.874Z,72.05
2022-11-08T03:10:29.276Z,72.04
2022-11-08T03:12:57.496Z,72.35
2022-11-08T03:15:25.449Z,72.44
2022-11-08T03:17:52.474Z,71.84
2022-11-08T03:20:19.673Z,71.86
2022-11-08T03:22:47.585Z,72.58
2022-11-08T03:25:14.549Z,71.86
2022-11-08T03:27:41.667Z,72.50
2022-11-08T03:30:08.904Z,71.88
2022-11-08T03:32:35.915Z,72.16
2022-11-08T03:35:02.892Z,72.51
2022-11-08T03:37:30.747Z,72.93
2022-11-08T03:39:57.839Z,72.86
2022-11-08T03:42:24.907Z,73.16
2022-11-08T03:44:51.943Z,73.48
2022-11-08T03:47:18.947Z,73.09
2022-11-08T03:49:46.038Z,73.20
2022-11-08T03:52:13.175Z,72.68
2022-11-08T03:54:40.215Z,73.31
2022-11-08T03:57:07.209Z,73.19
2022-11-08T03:59:34.263Z,73.76
2022-11-08T04:02:01.460Z,73.05
2022-11-08T04:04:28.485Z,73.68
2022-11-08T04:06:55.472Z,73.08
2022-11-08T04:09:22.505Z,73.60
2022-11-08T04:12:07.974Z,74.03
2022-11-08T04:14:53.605Z,73.49
2022-11-08T04:17:40.515Z,73.60
2022-11-08T04:20:27.904Z,73.39
2022-11-08T04:22:54.919Z,73.56
2022-11-08T04:25:22.068Z,73.52
2022-11-08T04:27:50.029Z,73.25
2022-11-08T04:30:17.151Z,73.54
2022-11-08T04:32:44.280Z,73.68
2022-11-08T04:35:11.139Z,73.22
2022-11-08T04:37:38.143Z,73.34
2022-11-08T04:40:05.714Z,73.70
2022-11-08T04:42:32.670Z,73.78
2022-11-08T04:44:59.585Z,73.14
2022-11-08T04:47:28.133Z,73.11
2022-11-08T04:49:55.231Z,73.50
2022-11-08T04:52:22.348Z,73.33
2022-11-08T04:54:49.571Z,73.37
2022-11-08T04:57:16.736Z,73.89
2022-11-08T04:59:43.834Z,73.76
2022-11-08T05:02:10.960Z,72.85
2022-11-08T05:04:38.224Z,72.68
2022-11-08T05:07:05.367Z,72.95
2022-11-08T05:09:32.494Z,72.88
2022-11-08T05:12:00.820Z,72.86
2022-11-08T05:14:27.906Z,72.96
2022-11-08T05:16:55.039Z,73.01
2022-11-08T05:19:48.227Z,72.98
2022-11-08T05:22:33.843Z,72.82
2022-11-08T05:25:01.029Z,72.59
2022-11-08T05:27:28.839Z,72.48
2022-11-08T05:29:55.795Z,73.25
2022-11-08T05:32:23.047Z,73.03
2022-11-08T05:34:50.110Z,72.77
2022-11-08T05:37:17.318Z,72.36
2022-11-08T05:39:44.339Z,73.08
2022-11-08T05:42:11.766Z,73.12
2022-11-08T05:44:38.894Z,72.72
2022-11-08T05:47:06.289Z,72.56
2022-11-08T05:49:33.587Z,72.64
2022-11-08T05:52:00.701Z,72.89
2022-11-08T05:54:27.722Z,73.61
2022-11-08T05:56:54.651Z,73.01
2022-11-08T05:59:21.580Z,73.32
2022-11-08T06:01:48.538Z,73.59
2022-11-08T06:04:15.690Z,73.17
2022-11-08T06:06:42.684Z,73.25
2022-11-08T06:09:09.587Z,73.18
2022-11-08T06:11:36.608Z,73.55
2022-11-08T06:14:03.593Z,73.41
2022-11-08T06:16:30.649Z,73.14
2022-11-08T06:18:57.594Z,73.35
2022-11-08T06:21:27.361Z,73.19
2022-11-08T06:23:55.047Z,73.20
2022-11-08T06:26:24.229Z,73.22
2022-11-08T06:28:51.382Z,72.97
2022-11-08T06:31:18.768Z,73.61
2022-11-08T06:33:45.998Z,73.34
2022-11-08T06:36:13.553Z,73.41
2022-11-08T06:38:43.964Z,73.43
2022-11-08T06:41:17.809Z,73.73
2022-11-08T06:43:44.815Z,73.20
2022-11-08T06:46:11.923Z,73.45
2022-11-08T06:48:38.967Z,72.95
2022-11-08T06:51:06.358Z,73.51
2022-11-08T06:53:33.426Z,73.21
2022-11-08T06:56:01.893Z,72.86
2022-11-08T06:58:29.624Z,73.26
2022-11-08T07:00:56.755Z,73.43
2022-11-08T07:03:24.007Z,73.25
2022-11-08T07:05:51.104Z,73.50
2022-11-08T07:08:23.339Z,73.64
2022-11-08T07:10:51.859Z,73.51
2022-11-08T07:13:19.609Z,73.29
2022-11-08T07:15:49.948Z,73.53
2022-11-08T07:18:19.168Z,73.56
2022-11-08T07:20:46.491Z,73.57
2022-11-08T07:23:14.056Z,73.38
2022-11-08T07:25:45.696Z,73.63
2022-11-08T07:28:16.887Z,73.61
2022-11-08T07:30:45.715Z,73.26
2022-11-08T07:33:13.911Z,73.27
2022-11-08T07:35:41.805Z,73.41
2022-11-08T07:38:08.866Z,73.67
2022-11-08T07:40:35.850Z,73.47
2022-11-08T07:43:11.870Z,73.22
2022-11-08T07:45:57.954Z,73.87
2022-11-08T07:48:25.945Z,73.80
2022-11-08T07:50:53.096Z,73.75
2022-11-08T07:53:20.740Z,73.45
2022-11-08T07:55:48.316Z,73.65
2022-11-08T07:58:16.406Z,73.71
2022-11-08T08:00:45.078Z,73.65
2022-11-08T08:03:14.081Z,73.51
2022-11-08T08:05:44.612Z,73.63
2022-11-08T08:08:13.450Z,73.53
2022-11-08T08:10:41.616Z,73.42
2022-11-08T08:13:09.042Z,72.94
2022-11-08T08:15:36.110Z,73.30
2022-11-08T08:18:05.007Z,73.05
2022-11-08T08:20:33.102Z,73.20
2022-11-08T08:23:00.934Z,73.49
2022-11-08T08:25:31.305Z,73.42
2022-11-08T08:28:01.171Z,73.23
2022-11-08T08:30:30.383Z,72.97
2022-11-08T08:35:58.159Z,72.80
2022-11-08T08:38:26.910Z,72.61
2022-11-08T08:40:53.908Z,72.94
2022-11-08T08:43:21.729Z,72.86
2022-11-08T08:45:49.215Z,72.76
2022-11-08T08:48:16.407Z,73.31
2022-11-08T08:50:43.726Z,72.98
2022-11-08T08:53:11.089Z,73.26
2022-11-08T08:55:39.859Z,73.05
2022-11-08T08:58:06.861Z,73.48
2022-11-08T09:03:21.911Z,72.96
2022-11-08T09:05:49.166Z,73.31
2022-11-08T09:08:16.280Z,73.17
2022-11-08T09:10:43.372Z,73.09
2022-11-08T09:13:10.689Z,73.32
2022-11-08T09:15:39.517Z,72.92
2022-11-08T09:18:07.051Z,73.14
2022-11-08T09:20:34.146Z,72.87
2022-11-08T09:23:05.167Z,72.92
2022-11-08T09:25:32.186Z,72.67
2022-11-08T09:27:59.241Z,72.68
2022-11-08T09:30:26.896Z,72.73
2022-11-08T09:33:00.704Z,72.42
2022-11-08T09:35:28.621Z,72.50
2022-11-08T09:37:56.018Z,72.38
2022-11-08T09:40:39.902Z,72.58
2022-11-08T09:43:46.490Z,72.61
2022-11-08T09:46:24.971Z,72.68
2022-11-08T09:48:53.860Z,72.64
2022-11-08T09:51:23.911Z,72.73
2022-11-08T09:54:00.024Z,72.54
2022-11-08T09:56:29.932Z,72.63
2022-11-08T09:59:18.349Z,72.59
2022-11-08T10:01:45.465Z,72.92
2022-11-08T10:04:16.408Z,72.74
2022-11-08T10:07:03.776Z,72.86
2022-11-08T10:10:28.306Z,72.64
2022-11-08T10:13:14.975Z,72.87
2022-11-08T10:15:58.988Z,72.78
2022-11-08T10:18:59.366Z,72.78
2022-11-08T10:21:48.329Z,72.82
2022-11-08T10:24:25.839Z,72.91
2022-11-08T10:26:55.362Z,73.01
2022-11-08T10:29:27.884Z,72.80
2022-11-08T10:32:24.835Z,73.27
2022-11-08T10:35:01.242Z,72.94
2022-11-08T10:37:33.385Z,73.17
2022-11-08T10:40:46.554Z,73.32
2022-11-08T10:43:26.684Z,73.13
2022-11-08T10:45:53.875Z,72.76
2022-11-08T10:48:20.952Z,72.84
2022-11-08T10:50:52.865Z,72.52
2022-11-08T10:53:27.251Z,72.61
2022-11-08T10:56:05.810Z,72.63
2022-11-08T10:58:41.499Z,72.77
2022-11-08T11:01:20.347Z,72.77
2022-11-08T11:03:49.392Z,72.70
2022-11-08T11:06:33.134Z,72.79
2022-11-08T11:09:03.817Z,72.66
2022-11-08T11:11:30.918Z,72.66
2022-11-08T11:14:21.986Z,72.64
2022-11-08T11:17:00.796Z,72.56
2022-11-08T11:19:29.379Z,72.26
2022-11-08T11:22:15.258Z,72.24
2022-11-08T11:24:52.208Z,72.28
2022-11-08T11:27:30.297Z,72.04
2022-11-08T11:30:23.117Z,72.04
2022-11-08T11:33:27.046Z,72.28
2022-11-08T11:36:19.090Z,72.59
2022-11-08T11:38:49.005Z,72.66
2022-11-08T11:41:22.372Z,72.84
2022-11-08T11:44:17.378Z,72.81
2022-11-08T11:47:03.133Z,72.72
2022-11-08T11:49:31.822Z,72.40
2022-11-08T11:51:59.098Z,72.56
2022-11-08T11:54:32.669Z,72.32
2022-11-08T11:57:24.278Z,72.74
2022-11-08T11:59:57.406Z,72.35
2022-11-08T12:02:42.658Z,72.70
2022-11-08T12:05:47.169Z,72.73
2022-11-08T12:08:23.893Z,72.70
2022-11-08T12:11:06.731Z,72.89
2022-11-08T12:14:07.457Z,72.72
2022-11-08T12:16:37.444Z,72.57
2022-11-08T12:19:29.553Z,72.67
2022-11-08T12:22:02.828Z,72.66
2022-11-08T12:24:48.229Z,72.82
2022-11-08T12:27:36.813Z,72.88
2022-11-08T12:30:36.018Z,72.39
2022-11-08T12:33:23.220Z,72.81
2022-11-08T12:36:14.529Z,72.86
2022-11-08T12:39:07.772Z,72.93
2022-11-08T12:41:50.211Z,72.78
2022-11-08T12:44:35.379Z,72.61
2022-11-08T12:47:20.676Z,72.37
2022-11-08T12:49:57.132Z,72.68
2022-11-08T12:52:55.367Z,72.73
2022-11-08T12:55:27.778Z,72.20
2022-11-08T12:57:58.871Z,72.55
2022-11-08T13:00:28.482Z,72.70
2022-11-08T13:03:43.106Z,73.05
2022-11-08T13:06:25.406Z,72.95
2022-11-08T13:12:41.366Z,73.01
2022-11-08T13:15:25.323Z,72.99
2022-11-08T13:18:07.622Z,72.98
2022-11-08T13:20:46.499Z,73.16
2022-11-08T13:23:33.227Z,72.81
2022-11-08T13:26:23.393Z,72.79
2022-11-08T13:28:51.596Z,72.94
2022-11-08T13:31:28.063Z,72.87
2022-11-08T13:34:23.732Z,72.69
2022-11-08T13:37:22.781Z,72.90
2022-11-08T13:53:58.493Z,72.90
2022-11-08T13:56:40.005Z,73.56
2022-11-08T13:59:32.214Z,73.58
2022-11-08T14:01:59.697Z,73.47
2022-11-08T14:04:40.943Z,73.65
2022-11-08T14:07:11.022Z,73.72
2022-11-08T14:09:49.116Z,73.40
2022-11-08T14:12:31.319Z,73.35
2022-11-08T14:15:07.453Z,73.61
2022-11-08T14:17:44.909Z,73.40
2022-11-08T14:20:39.745Z,73.79
2022-11-08T14:23:33.208Z,73.74
2022-11-08T14:26:02.168Z,73.32
2022-11-08T14:28:31.384Z,73.50
2022-11-08T14:30:59.897Z,73.94
2022-11-08T14:33:29.460Z,73.82
2022-11-08T14:35:56.518Z,73.92
2022-11-08T14:38:25.733Z,74.14
2022-11-08T14:41:00.030Z,74.09
2022-11-08T14:43:27.880Z,73.33
2022-11-08T14:45:58.311Z,73.86
2022-11-08T14:48:29.769Z,73.71
2022-11-08T14:51:01.739Z,73.81
2022-11-08T14:53:34.578Z,74.05
2022-11-08T14:56:16.816Z,73.36
2022-11-08T14:58:44.581Z,73.80
2022-11-08T15:01:13.929Z,73.49
2022-11-08T15:03:47.289Z,73.81
2022-11-08T15:06:14.644Z,73.73
2022-11-08T15:08:53.298Z,73.48
2022-11-08T15:11:32.064Z,73.71
2022-11-08T15:14:03.439Z,73.58
2022-11-08T15:16:45.413Z,73.36
2022-11-08T15:19:29.928Z,73.50
2022-11-08T15:22:01.643Z,73.17
2022-11-08T15:24:39.919Z,72.95
2022-11-08T15:27:13.492Z,72.96
2022-11-08T15:29:59.641Z,73.57
2022-11-08T15:32:27.627Z,73.27
2022-11-08T15:34:58.714Z,72.98
2022-11-08T15:37:35.642Z,73.28
2022-11-08T15:40:14.455Z,73.19
2022-11-08T15:42:45.639Z,73.19
2022-11-08T15:45:12.807Z,73.00
2022-11-08T15:47:42.844Z,73.27
2022-11-08T15:50:14.163Z,73.09
2022-11-08T15:52:42.215Z,73.44
2022-11-08T15:55:14.003Z,73.38
2022-11-08T15:57:43.406Z,73.48
2022-11-08T16:00:15.751Z,73.52
2022-11-08T16:02:43.660Z,73.60
2022-11-08T16:05:21.867Z,73.67
2022-11-08T16:07:50.583Z,73.46
2022-11-08T16:10:39.374Z,73.72
2022-11-08T16:13:07.678Z,73.71
2022-11-08T16:15:35.760Z,73.52
2022-11-08T16:18:03.730Z,73.15
2022-11-08T16:20:33.716Z,73.26
2022-11-08T16:23:02.921Z,72.85
2022-11-08T16:25:35.376Z,73.36
2022-11-08T16:28:09.118Z,73.22
2022-11-08T16:30:36.385Z,73.16
2022-11-08T16:33:29.044Z,73.43
2022-11-08T16:35:58.187Z,73.47
2022-11-08T16:38:29.295Z,73.50
2022-11-08T16:40:56.431Z,73.49
2022-11-08T16:43:23.397Z,73.56
2022-11-08T16:46:04.866Z,73.49
2022-11-08T16:48:32.368Z,73.69
2022-11-08T16:51:01.860Z,73.88
2022-11-08T16:53:32.607Z,73.86
2022-11-08T16:55:59.759Z,73.19
2022-11-08T16:58:28.187Z,73.14
2022-11-08T17:00:56.640Z,73.40
2022-11-08T17:03:25.835Z,73.39
2022-11-08T17:05:54.246Z,73.18
2022-11-08T17:08:22.071Z,73.31
2022-11-08T17:10:49.227Z,72.90
2022-11-08T17:13:18.564Z,73.10
2022-11-08T17:15:47.222Z,73.07
2022-11-08T17:18:17.010Z,73.02
2022-11-08T17:20:44.546Z,72.93
2022-11-08T17:23:11.887Z,73.09
2022-11-08T17:25:40.468Z,73.07
2022-11-08T17:28:08.598Z,73.10
2022-11-08T17:30:37.136Z,73.16
2022-11-08T17:33:04.402Z,73.46
2022-11-08T17:35:31.469Z,73.19
2022-11-08T17:37:58.494Z,73.86
2022-11-08T17:40:25.510Z,73.61
2022-11-08T17:42:52.911Z,73.30
2022-11-08T17:45:20.410Z,73.37
2022-11-08T17:47:48.860Z,73.34
2022-11-08T17:50:16.069Z,73.16
2022-11-08T17:52:43.077Z,73.06
2022-11-08T17:55:10.308Z,73.15
2022-11-08T17:57:37.408Z,73.18
2022-11-08T18:00:08.585Z,73.34
2022-11-08T18:02:39.878Z,73.36
2022-11-08T18:05:07.395Z,73.48
2022-11-08T18:07:34.432Z,73.32
2022-11-08T18:10:03.945Z,73.44
2022-11-08T18:12:33.012Z,73.26
2022-11-08T18:15:01.497Z,73.45
2022-11-08T18:17:30.242Z,73.37
2022-11-08T18:19:57.427Z,73.30
2022-11-08T18:22:24.781Z,73.59
2022-11-08T18:24:51.942Z,73.33
2022-11-08T18:27:19.075Z,73.20
2022-11-08T18:29:46.445Z,72.94
2022-11-08T18:32:13.491Z,73.01
2022-11-08T18:34:40.622Z,73.08
2022-11-08T18:37:07.853Z,73.16
2022-11-08T18:39:36.169Z,73.34
2022-11-08T18:42:03.307Z,73.33
2022-11-08T18:44:30.720Z,73.10
2022-11-08T18:46:58.426Z,73.43
2022-11-08T18:49:27.966Z,73.35
2022-11-08T18:51:57.714Z,73.16
2022-11-08T18:54:24.922Z,73.25
2022-11-08T18:56:52.001Z,73.03
2022-11-08T18:59:20.842Z,73.32
2022-11-08T19:01:48.168Z,73.43
2022-11-08T19:04:15.571Z,73.32
2022-11-08T19:06:42.612Z,73.42
2022-11-08T19:09:09.665Z,73.42
2022-11-08T19:11:37.211Z,73.58
2022-11-08T19:14:04.226Z,73.46
2022-11-08T19:16:32.395Z,73.48
2022-11-08T19:18:59.888Z,73.76
2022-11-08T19:21:28.164Z,73.65
2022-11-08T19:23:59.422Z,73.85
2022-11-08T19:26:28.909Z,73.74
2022-11-08T19:28:57.379Z,73.89
2022-11-08T19:31:25.524Z,73.45
2022-11-08T19:33:53.929Z,73.85
2022-11-08T19:36:23.482Z,73.72
2022-11-08T19:38:52.277Z,73.74
2022-11-08T19:41:21.414Z,73.48
2022-11-08T19:43:49.028Z,73.65
2022-11-08T19:46:18.589Z,73.54
2022-11-08T19:48:47.106Z,73.78
2022-11-08T19:51:22.223Z,73.56
2022-11-08T19:53:50.126Z,73.66
2022-11-08T19:56:19.421Z,73.54
2022-11-08T19:58:47.125Z,73.46
2022-11-08T20:01:16.528Z,73.42
2022-11-08T20:03:44.468Z,73.65
2022-11-08T20:06:12.248Z,73.61
2022-11-08T20:08:39.557Z,73.68
2022-11-08T20:11:33.203Z,74.02
2022-11-08T20:14:01.169Z,74.06
2022-11-08T20:16:32.615Z,73.87
2022-11-08T20:19:14.362Z,73.88
2022-11-08T20:21:45.964Z,73.90
2022-11-08T20:24:14.522Z,74.03
2022-11-08T20:26:42.074Z,73.99
2022-11-08T20:29:09.992Z,74.03
2022-11-08T20:31:38.775Z,73.85
2022-11-08T20:34:09.757Z,73.88
2022-11-08T20:36:37.872Z,73.61
2022-11-08T20:39:07.770Z,73.65
2022-11-08T20:41:37.716Z,73.78
2022-11-08T20:44:06.830Z,73.78
2022-11-08T20:46:36.030Z,73.77
2022-11-08T20:49:04.627Z,73.84
2022-11-08T20:51:32.453Z,73.88
2022-11-08T20:54:00.705Z,73.88
2022-11-08T20:56:29.037Z,73.85
2022-11-08T20:58:56.596Z,74.03
2022-11-08T21:01:27.408Z,73.65
2022-11-08T21:03:55.290Z,73.75
2022-11-08T21:06:24.207Z,73.68
2022-11-08T21:09:03.877Z,74.16
2022-11-08T21:11:35.629Z,74.07
2022-11-08T21:14:04.250Z,73.92
2022-11-08T21:16:42.289Z,73.63
2022-11-08T21:19:14.262Z,73.82
2022-11-08T21:21:41.736Z,73.88
2022-11-08T21:24:08.815Z,73.51
2022-11-08T21:26:36.876Z,73.55
2022-11-08T21:29:05.686Z,73.35
2022-11-08T21:31:33.601Z,73.44
2022-11-08T21:34:00.638Z,73.82
2022-11-08T21:36:29.311Z,73.86
2022-11-08T21:38:56.524Z,74.09
2022-11-08T21:41:23.758Z,73.81
2022-11-08T21:43:50.917Z,73.98
2022-11-08T21:46:24.615Z,73.72
2022-11-08T21:49:00.218Z,73.66
2022-11-08T21:51:29.556Z,73.97
2022-11-08T21:53:58.537Z,74.22
2022-11-08T21:56:30.148Z,73.73
2022-11-08T21:58:57.826Z,73.92
2022-11-08T22:01:29.920Z,73.91
2022-11-08T22:03:58.975Z,73.91
2022-11-08T22:06:26.500Z,73.76
2022-11-08T22:08:53.825Z,73.70
2022-11-08T22:11:20.941Z,73.98
2022-11-08T22:13:48.020Z,74.14
2022-11-08T22:16:15.023Z,74.15
2022-11-08T22:19:03.491Z,74.14
2022-11-08T22:21:38.519Z,73.77
2022-11-08T22:24:22.671Z,73.85
2022-11-08T22:26:51.314Z,74.20
2022-11-08T22:29:19.033Z,73.94
2022-11-08T22:31:46.288Z,74.01
2022-11-08T22:34:13.751Z,74.09
2022-11-08T22:36:45.267Z,74.08
2022-11-08T22:39:23.474Z,73.87
2022-11-08T22:41:52.885Z,74.03
2022-11-08T22:44:20.406Z,74.16
2022-11-08T22:46:48.456Z,74.35
2022-11-08T22:49:16.104Z,74.18
2022-11-08T22:51:43.796Z,74.53
2022-11-08T22:54:10.923Z,74.29
2022-11-08T22:56:38.479Z,74.46
2022-11-08T22:59:05.628Z,74.63
2022-11-08T23:01:33.514Z,74.56
2022-11-08T23:04:00.928Z,74.89
2022-11-08T23:06:28.003Z,74.83
2022-11-08T23:08:55.062Z,74.79
2022-11-08T23:11:40.503Z,74.94
2022-11-08T23:14:32.292Z,74.58
2022-11-08T23:17:03.077Z,75.02
2022-11-08T23:19:48.890Z,74.58
2022-11-08T23:22:35.203Z,74.75
2022-11-08T23:25:02.497Z,74.43
2022-11-08T23:27:49.801Z,74.98
2022-11-08T23:30:36.991Z,74.67
2022-11-08T23:33:06.762Z,74.48
2022-11-08T23:35:33.952Z,74.45
2022-11-08T23:38:01.038Z,74.80
2022-11-08T23:40:46.616Z,74.47
2022-11-08T23:43:31.781Z,74.14
2022-11-08T23:46:07.941Z,74.68
2022-11-08T23:48:36.766Z,74.62
2022-11-08T23:51:04.599Z,74.54
2022-11-08T23:53:34.361Z,74.63
2022-11-08T23:56:01.389Z,74.78
2022-11-08T23:58:28.329Z,74.36
